CYGP

Gaspé (Michel-Pouliot) Airport

Gaspé, Quebec, Canada
METAR CYGP 191000Z 07006KT 15SM BKN030 08/03 A3011 RMK SC6 SLP200
Observed Flight Rules
Sep-19 @ 10:00 UTC (an hour ago) Marginal Visual Flight Rules
Wind Visibility Clouds
70° at 6 knots 15 miles
  • Broken at 3,000' AGL
Temperatures Readings
Current 8°C / 46°F
Dewpoint 3°C / 37°F
Humidity 71%
Altimeter 30.11" Hg
Pressure 1020 hPa
Elevation 33
METAR CYGP 191000Z 07006KT 15SM BKN030 08/03 A3011 RMK SC6 SLP200
Observed Flight Rules
Sep-19 @ 10:00 UTC
(an hour ago)
MVFR
Wind Visibility
70° at 6 knots 15 miles
Clouds
  • Broken at 3,000' AGL
Temperature Dewpoint
8°C / 46°F 3°C / 37°F
Humidity Altimeter Pressure
71% 30.11" Hg 1020 hPa